Daisinmaru No.11 — JK5352 — position and weather

sailwx.info

Track history (hours):
 
Tides and Currents Weather Stations Pressure Air Temp Water Temp Dewpoint Dewpoint Depression Visibility Wind Speed Wind Dir Waves Ship Positions

Daisinmaru No.11

Last reported at 2018-Jul-17 01:14 UTC. Time now 2018-Jul-21 19:31 UTC.
Position N 35°29' E 139°58'.

Length 52 m.

MMSI: 431000667.

Date/timePositionNaut miles runAvg speedWind from/ knotsBaromVisibWave heightAir tempDewpointWater temp
2018-Jul-17 01:14N 35°29' E 139°58'2 7.9
2018-Jul-17 00:59N 35°29' E 139°55'4 8.0
2018-Jul-17 00:30N 35°28' E 139°51'7 7.2
2018-Jul-16 23:30N 35°27' E 139°42'3 5.9
2018-Jul-16 23:00N 35°28' E 139°39'  
2018-Jul-14 06:25N 35°28' E 139°39'0 0.0
2018-Jul-14 06:00N 35°28' E 139°39'0 0.0
2018-Jul-14 05:30N 35°28' E 139°39'0 0.0
2018-Jul-14 05:00N 35°28' E 139°39'0 0.0
2018-Jul-14 04:29N 35°28' E 139°39'0 0.0
2018-Jul-14 04:00N 35°28' E 139°39'0 0.0
2018-Jul-14 03:30N 35°28' E 139°39'0 0.0
2018-Jul-14 03:00N 35°28' E 139°39'0 0.0
2018-Jul-14 02:30N 35°28' E 139°39'0 0.0
2018-Jul-14 02:00N 35°28' E 139°39'0 0.0
2018-Jul-14 01:30N 35°28' E 139°39'0 0.0
2018-Jul-14 01:00N 35°28' E 139°39'0 0.0
2018-Jul-14 00:30N 35°28' E 139°39'0 0.0
2018-Jul-14 00:00N 35°28' E 139°39'0 0.0
2018-Jul-13 23:30N 35°28' E 139°39'0 0.0
2018-Jul-13 23:00N 35°28' E 139°39'0 0.0
2018-Jul-13 06:39N 35°28' E 139°39'0 0.0
2018-Jul-13 06:30N 35°28' E 139°39'0 0.0
2018-Jul-13 06:00N 35°28' E 139°39'0 0.0
2018-Jul-13 05:29N 35°28' E 139°39'0 0.0
2018-Jul-13 05:00N 35°28' E 139°39'0 0.0
2018-Jul-13 04:30N 35°28' E 139°39'0 0.0
2018-Jul-13 04:00N 35°28' E 139°39'0 0.0
2018-Jul-13 03:30N 35°28' E 139°39'0 0.0
2018-Jul-13 03:00N 35°28' E 139°39'0 0.0
2018-Jul-13 02:30N 35°28' E 139°39'0 0.0
2018-Jul-13 02:00N 35°28' E 139°39'0 0.0
2018-Jul-13 01:30N 35°28' E 139°39'0 0.0
2018-Jul-13 01:00N 35°28' E 139°39'0 0.0
2018-Jul-13 00:30N 35°28' E 139°39'0 0.0
2018-Jul-13 00:00N 35°28' E 139°39'0 0.0
2018-Jul-12 23:30N 35°28' E 139°39'0 0.0
2018-Jul-12 23:00N 35°28' E 139°39'0 0.0
2018-Jul-12 06:48N 35°28' E 139°39'0 0.0
2018-Jul-12 06:30N 35°28' E 139°39'0 0.1
2018-Jul-12 06:00N 35°28' E 139°39'0 0.0
2018-Jul-12 05:30N 35°28' E 139°39'0 0.0
2018-Jul-12 05:00N 35°28' E 139°39'0 0.0
2018-Jul-12 04:30N 35°28' E 139°39'0 0.0
2018-Jul-12 04:00N 35°28' E 139°39'0 0.0
2018-Jul-12 03:29N 35°28' E 139°39'0 0.0
2018-Jul-12 03:01N 35°28' E 139°39'4 7.7
2018-Jul-12 02:30N 35°27' E 139°43'6 9.5
2018-Jul-12 01:50N 35°29' E 139°51'3 9.1
2018-Jul-12 01:30N 35°29' E 139°54'8 0.2
2018-Jul-10 03:51N 35°35' E 139°47'1 2.3
2018-Jul-10 03:30N 35°34' E 139°48'4 6.7
2018-Jul-10 02:58N 35°33' E 139°52'4 9.0
2018-Jul-10 02:30N 35°31' E 139°56'  
Track history (hours):
 
Tides and Currents Weather Stations Pressure Air Temp Water Temp Dewpoint Dewpoint Depression Visibility Wind Speed Wind Dir Waves Ship Positions

Daisinmaru No.11

Last reported at 2018-Jul-17 01:14 UTC. Time now 2018-Jul-21 19:31 UTC.
Position N 35°29' E 139°58'.

Length 52 m.

MMSI: 431000667.

Date/timePositionNaut miles runAvg speedWind from/ knotsBaromVisibWave heightAir tempDewpointWater temp
2018-Jul-17 01:14N 35°29' E 139°58'2 7.9
2018-Jul-17 00:59N 35°29' E 139°55'4 8.0
2018-Jul-17 00:30N 35°28' E 139°51'7 7.2
2018-Jul-16 23:30N 35°27' E 139°42'3 5.9
2018-Jul-16 23:00N 35°28' E 139°39'  
2018-Jul-14 06:25N 35°28' E 139°39'0 0.0
2018-Jul-14 06:00N 35°28' E 139°39'0 0.0
2018-Jul-14 05:30N 35°28' E 139°39'0 0.0
2018-Jul-14 05:00N 35°28' E 139°39'0 0.0
2018-Jul-14 04:29N 35°28' E 139°39'0 0.0
2018-Jul-14 04:00N 35°28' E 139°39'0 0.0
2018-Jul-14 03:30N 35°28' E 139°39'0 0.0
2018-Jul-14 03:00N 35°28' E 139°39'0 0.0
2018-Jul-14 02:30N 35°28' E 139°39'0 0.0
2018-Jul-14 02:00N 35°28' E 139°39'0 0.0
2018-Jul-14 01:30N 35°28' E 139°39'0 0.0
2018-Jul-14 01:00N 35°28' E 139°39'0 0.0
2018-Jul-14 00:30N 35°28' E 139°39'0 0.0
2018-Jul-14 00:00N 35°28' E 139°39'0 0.0
2018-Jul-13 23:30N 35°28' E 139°39'0 0.0
2018-Jul-13 23:00N 35°28' E 139°39'0 0.0
2018-Jul-13 06:39N 35°28' E 139°39'0 0.0
2018-Jul-13 06:30N 35°28' E 139°39'0 0.0
2018-Jul-13 06:00N 35°28' E 139°39'0 0.0
2018-Jul-13 05:29N 35°28' E 139°39'0 0.0
2018-Jul-13 05:00N 35°28' E 139°39'0 0.0
2018-Jul-13 04:30N 35°28' E 139°39'0 0.0
2018-Jul-13 04:00N 35°28' E 139°39'0 0.0
2018-Jul-13 03:30N 35°28' E 139°39'0 0.0
2018-Jul-13 03:00N 35°28' E 139°39'0 0.0
2018-Jul-13 02:30N 35°28' E 139°39'0 0.0
2018-Jul-13 02:00N 35°28' E 139°39'0 0.0
2018-Jul-13 01:30N 35°28' E 139°39'0 0.0
2018-Jul-13 01:00N 35°28' E 139°39'0 0.0
2018-Jul-13 00:30N 35°28' E 139°39'0 0.0
2018-Jul-13 00:00N 35°28' E 139°39'0 0.0
2018-Jul-12 23:30N 35°28' E 139°39'0 0.0
2018-Jul-12 23:00N 35°28' E 139°39'0 0.0
2018-Jul-12 06:48N 35°28' E 139°39'0 0.0
2018-Jul-12 06:30N 35°28' E 139°39'0 0.1
2018-Jul-12 06:00N 35°28' E 139°39'0 0.0
2018-Jul-12 05:30N 35°28' E 139°39'0 0.0
2018-Jul-12 05:00N 35°28' E 139°39'0 0.0
2018-Jul-12 04:30N 35°28' E 139°39'0 0.0
2018-Jul-12 04:00N 35°28' E 139°39'0 0.0
2018-Jul-12 03:29N 35°28' E 139°39'0 0.0
2018-Jul-12 03:01N 35°28' E 139°39'4 7.7
2018-Jul-12 02:30N 35°27' E 139°43'6 9.5
2018-Jul-12 01:50N 35°29' E 139°51'3 9.1
2018-Jul-12 01:30N 35°29' E 139°54'8 0.2
2018-Jul-10 03:51N 35°35' E 139°47'1 2.3
2018-Jul-10 03:30N 35°34' E 139°48'4 6.7
2018-Jul-10 02:58N 35°33' E 139°52'4 9.0
2018-Jul-10 02:30N 35°31' E 139°56'  

Dump ship's entire track history